createdAt,value
2022-08-24T00:01:49.185Z,15.87
2022-08-24T00:04:16.323Z,15.94
2022-08-24T00:06:44.786Z,16.22
2022-08-24T00:09:12.644Z,16.44
2022-08-24T00:11:39.630Z,16.35
2022-08-24T00:14:06.882Z,16.24
2022-08-24T00:16:35.500Z,16.23
2022-08-24T00:19:02.558Z,16.11
2022-08-24T00:21:29.578Z,15.89
2022-08-24T00:23:56.914Z,15.94
2022-08-24T00:26:29.059Z,15.79
2022-08-24T00:28:58.679Z,15.92
2022-08-24T00:31:26.575Z,15.60
2022-08-24T00:33:54.652Z,15.74
2022-08-24T00:36:22.345Z,15.53
2022-08-24T00:38:49.994Z,15.16
2022-08-24T00:41:18.170Z,15.09
2022-08-24T00:43:55.630Z,15.01
2022-08-24T00:46:59.991Z,15.28
2022-08-24T00:49:33.965Z,15.56
2022-08-24T00:52:24.821Z,15.43
2022-08-24T00:55:07.419Z,15.29
2022-08-24T00:57:40.449Z,15.06
2022-08-24T01:00:22.641Z,15.18
2022-08-24T01:02:55.569Z,15.30
2022-08-24T01:05:22.814Z,15.08
2022-08-24T01:07:50.645Z,14.68
2022-08-24T01:10:25.171Z,14.79
2022-08-24T01:13:00.452Z,14.63
2022-08-24T01:15:30.185Z,14.87
2022-08-24T01:18:16.508Z,14.76
2022-08-24T01:20:50.363Z,14.64
2022-08-24T01:23:40.921Z,15.17
2022-08-24T01:26:13.081Z,15.19
2022-08-24T01:28:46.455Z,15.07
2022-08-24T01:31:14.392Z,14.95
2022-08-24T01:33:41.822Z,14.90
2022-08-24T01:36:36.820Z,14.81
2022-08-24T01:39:18.753Z,14.62
2022-08-24T01:41:46.445Z,14.39
2022-08-24T01:44:14.235Z,14.41
2022-08-24T01:46:47.449Z,14.22
2022-08-24T01:49:15.733Z,14.33
2022-08-24T01:51:46.282Z,14.31
2022-08-24T01:54:14.821Z,14.43
2022-08-24T01:56:42.615Z,14.58
2022-08-24T01:59:12.497Z,14.78
2022-08-24T02:01:47.493Z,14.70
2022-08-24T02:04:17.881Z,14.77
2022-08-24T02:06:47.563Z,14.63
2022-08-24T02:09:16.807Z,14.55
2022-08-24T02:11:44.084Z,14.45
2022-08-24T02:14:14.484Z,14.26
2022-08-24T02:16:42.993Z,14.17
2022-08-24T02:19:10.200Z,14.19
2022-08-24T02:21:38.584Z,14.26
2022-08-24T02:24:07.448Z,14.11
2022-08-24T02:26:34.550Z,14.15
2022-08-24T02:29:03.792Z,14.24
2022-08-24T02:31:32.551Z,14.20
2022-08-24T02:33:59.942Z,14.18
2022-08-24T02:36:27.098Z,14.05
2022-08-24T02:38:58.281Z,13.95
2022-08-24T02:41:26.572Z,13.70
2022-08-24T02:43:55.483Z,14.00
2022-08-24T02:46:29.910Z,14.02
2022-08-24T02:49:11.829Z,14.06
2022-08-24T02:51:46.108Z,13.73
2022-08-24T02:54:18.763Z,13.44
2022-08-24T02:56:48.439Z,13.58
2022-08-24T02:59:17.090Z,13.68
2022-08-24T03:01:44.930Z,13.71
2022-08-24T03:04:13.434Z,13.79
2022-08-24T03:06:40.765Z,13.57
2022-08-24T03:09:08.439Z,13.67
2022-08-24T03:11:35.614Z,13.62
2022-08-24T03:14:03.073Z,13.35
2022-08-24T03:16:31.664Z,13.10
2022-08-24T03:18:59.638Z,12.90
2022-08-24T03:21:28.237Z,12.79
2022-08-24T03:23:56.470Z,12.75
2022-08-24T03:26:23.780Z,12.71
2022-08-24T03:28:52.926Z,12.70
2022-08-24T03:31:21.296Z,12.64
2022-08-24T03:33:50.870Z,12.91
2022-08-24T03:36:18.272Z,13.28
2022-08-24T03:38:45.371Z,13.53
2022-08-24T03:41:12.807Z,13.40
2022-08-24T03:43:47.241Z,13.55
2022-08-24T03:46:22.230Z,13.53
2022-08-24T03:48:54.539Z,13.57
2022-08-24T03:51:28.829Z,13.49
2022-08-24T03:53:58.511Z,13.19
2022-08-24T03:56:28.914Z,12.92
2022-08-24T03:58:57.386Z,12.63
2022-08-24T04:01:27.417Z,12.49
2022-08-24T04:03:55.312Z,12.39
2022-08-24T04:06:27.099Z,12.49
2022-08-24T04:08:54.749Z,12.46
2022-08-24T04:11:26.021Z,12.48
2022-08-24T04:13:57.973Z,12.35
2022-08-24T04:16:26.867Z,12.57
2022-08-24T04:19:03.641Z,12.43
2022-08-24T04:21:35.321Z,12.52
2022-08-24T04:24:07.404Z,12.46
2022-08-24T04:26:44.571Z,12.33
2022-08-24T04:29:17.521Z,12.25
2022-08-24T04:31:51.623Z,12.29
2022-08-24T04:34:18.764Z,12.38
2022-08-24T04:36:46.820Z,12.28
2022-08-24T04:39:14.923Z,12.28
2022-08-24T04:41:50.974Z,12.25
2022-08-24T04:44:21.234Z,12.20
2022-08-24T04:46:48.401Z,12.60
2022-08-24T04:49:15.477Z,12.79
2022-08-24T04:51:43.570Z,12.80
2022-08-24T04:54:10.682Z,13.08
2022-08-24T04:56:38.599Z,13.21
2022-08-24T04:59:06.285Z,13.19
2022-08-24T05:01:34.643Z,13.24
2022-08-24T05:04:05.199Z,13.27
2022-08-24T05:06:32.832Z,13.44
2022-08-24T05:09:01.150Z,13.72
2022-08-24T05:11:29.053Z,13.97
2022-08-24T05:13:58.150Z,14.41
2022-08-24T05:16:26.611Z,15.23
2022-08-24T05:18:55.512Z,16.42
2022-08-24T05:21:24.935Z,17.70
2022-08-24T05:23:54.800Z,18.59
2022-08-24T05:26:26.546Z,18.64
2022-08-24T05:29:00.301Z,20.12
2022-08-24T05:31:33.444Z,21.13
2022-08-24T05:34:05.880Z,21.59
2022-08-24T05:36:38.152Z,22.07
2022-08-24T05:39:13.984Z,21.51
2022-08-24T05:41:46.605Z,22.22
2022-08-24T05:44:20.030Z,22.28
2022-08-24T05:46:47.585Z,23.06
2022-08-24T05:49:14.583Z,23.77
2022-08-24T05:51:42.705Z,24.02
2022-08-24T05:54:13.729Z,23.32
2022-08-24T05:56:51.942Z,22.46
2022-08-24T05:59:19.778Z,23.77
2022-08-24T06:01:48.342Z,24.69
2022-08-24T06:04:15.559Z,24.99
2022-08-24T06:06:42.855Z,24.51
2022-08-24T06:09:12.140Z,24.93
2022-08-24T06:11:41.317Z,24.88
2022-08-24T06:14:15.478Z,24.55
2022-08-24T06:16:52.605Z,24.24
2022-08-24T06:19:20.642Z,24.13
2022-08-24T06:21:51.690Z,24.23
2022-08-24T06:24:19.415Z,24.96
2022-08-24T06:27:05.733Z,24.79
2022-08-24T06:29:34.775Z,25.65
2022-08-24T06:32:22.098Z,26.50
2022-08-24T06:34:49.754Z,27.00
2022-08-24T06:37:18.329Z,26.99
2022-08-24T06:39:45.811Z,27.16
2022-08-24T06:42:12.889Z,27.13
2022-08-24T06:44:44.212Z,26.52
2022-08-24T06:47:19.691Z,27.41
2022-08-24T06:49:49.035Z,27.80
2022-08-24T06:52:16.523Z,28.61
2022-08-24T06:54:43.659Z,28.32
2022-08-24T06:57:10.855Z,28.68
2022-08-24T06:59:40.246Z,29.44
2022-08-24T07:02:09.167Z,29.31
2022-08-24T07:04:38.268Z,28.64
2022-08-24T07:07:23.726Z,28.17
2022-08-24T07:09:50.800Z,28.67
2022-08-24T07:12:17.806Z,29.09
2022-08-24T07:14:44.826Z,29.79
2022-08-24T07:17:11.945Z,29.49
2022-08-24T07:19:39.343Z,29.87
2022-08-24T07:22:08.332Z,30.08
2022-08-24T07:24:35.365Z,30.72
2022-08-24T07:27:02.341Z,31.43
2022-08-24T07:29:52.817Z,31.02
2022-08-24T07:32:16.523Z,30.18
2022-08-24T07:34:45.837Z,29.74
2022-08-24T07:37:13.089Z,30.06
2022-08-24T07:39:43.857Z,29.99
2022-08-24T07:42:15.864Z,29.82
2022-08-24T07:44:46.172Z,29.76
2022-08-24T07:47:38.042Z,30.21
2022-08-24T07:50:02.334Z,30.79
2022-08-24T07:52:29.882Z,30.60
2022-08-24T07:54:56.958Z,30.66
2022-08-24T07:57:25.003Z,31.39
2022-08-24T07:59:52.399Z,31.98
2022-08-24T08:02:19.930Z,33.00
2022-08-24T08:04:50.956Z,31.58
2022-08-24T08:07:19.115Z,31.70
2022-08-24T08:09:52.300Z,31.45
2022-08-24T08:12:19.789Z,31.95
2022-08-24T08:14:56.280Z,33.54
2022-08-24T08:17:23.709Z,33.52
2022-08-24T08:19:51.020Z,34.50
2022-08-24T08:22:37.015Z,32.92
2022-08-24T08:25:31.624Z,34.94
2022-08-24T08:28:12.742Z,34.34
2022-08-24T08:30:50.310Z,34.59
2022-08-24T08:33:18.462Z,34.55
2022-08-24T08:35:46.393Z,34.68
2022-08-24T08:38:13.560Z,34.41
2022-08-24T08:41:07.271Z,34.19
2022-08-24T08:43:44.086Z,33.84
2022-08-24T08:46:49.548Z,33.89
2022-08-24T08:49:47.426Z,33.40
2022-08-24T08:52:38.997Z,31.32
2022-08-24T08:55:41.573Z,30.84
2022-08-24T08:58:22.835Z,30.14
2022-08-24T09:01:10.093Z,30.10
2022-08-24T09:04:22.652Z,29.73
2022-08-24T09:07:24.537Z,31.50
2022-08-24T09:10:54.770Z,31.09
2022-08-24T09:13:51.370Z,30.66
2022-08-24T09:16:52.959Z,30.17
2022-08-24T09:19:31.792Z,30.25
2022-08-24T09:22:15.011Z,30.74
2022-08-24T09:24:46.346Z,31.78
2022-08-24T09:28:19.905Z,31.40
2022-08-24T09:31:09.095Z,31.73
2022-08-24T09:33:45.734Z,32.08
2022-08-24T09:36:20.605Z,32.18
2022-08-24T09:38:58.950Z,32.40
2022-08-24T09:41:57.174Z,32.79
2022-08-24T09:45:01.362Z,32.72
2022-08-24T09:47:57.346Z,33.42
2022-08-24T09:51:11.275Z,34.41
2022-08-24T09:54:08.653Z,33.05
2022-08-24T09:56:59.846Z,32.55
2022-08-24T10:00:01.553Z,32.25
2022-08-24T10:02:51.822Z,32.58
2022-08-24T10:05:50.732Z,34.06
2022-08-24T10:09:06.131Z,34.19
2022-08-24T10:11:51.237Z,32.48
2022-08-24T10:14:56.155Z,32.56
2022-08-24T10:17:46.747Z,33.07
2022-08-24T10:20:26.076Z,34.54
2022-08-24T10:23:27.445Z,34.39
2022-08-24T10:26:22.549Z,33.47
2022-08-24T10:29:08.031Z,33.44
2022-08-24T10:31:48.346Z,35.45
2022-08-24T10:34:40.293Z,34.67
2022-08-24T10:37:19.586Z,35.52
2022-08-24T10:40:32.370Z,34.79
2022-08-24T10:43:34.737Z,34.79
2022-08-24T10:46:18.956Z,36.12
2022-08-24T10:49:32.194Z,35.91
2022-08-24T10:52:39.804Z,34.26
2022-08-24T10:55:21.158Z,35.24
2022-08-24T10:58:05.969Z,35.10
2022-08-24T11:00:33.524Z,34.79
2022-08-24T11:03:14.258Z,34.90
2022-08-24T11:05:55.619Z,34.26
2022-08-24T11:08:26.160Z,34.14
2022-08-24T11:11:10.242Z,34.15
2022-08-24T11:13:49.530Z,34.80
2022-08-24T11:16:45.160Z,34.68
2022-08-24T11:19:15.672Z,34.29
2022-08-24T11:21:51.794Z,34.10
2022-08-24T11:24:19.126Z,34.31
2022-08-24T11:26:55.312Z,35.17
2022-08-24T11:29:31.575Z,35.11
2022-08-24T11:31:59.527Z,34.59
2022-08-24T11:34:36.420Z,35.18
2022-08-24T11:37:05.046Z,33.99
2022-08-24T11:39:37.428Z,32.69
2022-08-24T11:42:27.416Z,32.52
2022-08-24T11:45:20.659Z,32.10
2022-08-24T11:48:05.237Z,32.41
2022-08-24T11:50:38.176Z,32.44
2022-08-24T11:56:28.145Z,31.84
2022-08-24T11:59:20.211Z,31.09
2022-08-24T12:02:03.570Z,32.28
2022-08-24T12:05:02.673Z,32.45
2022-08-24T12:07:54.081Z,32.24
2022-08-24T12:10:46.845Z,32.37
2022-08-24T12:13:17.049Z,32.90
2022-08-24T12:16:32.768Z,32.01
2022-08-24T12:19:33.183Z,31.87
2022-08-24T12:22:06.188Z,32.03
2022-08-24T12:24:56.053Z,31.34
2022-08-24T12:27:30.298Z,31.42
2022-08-24T12:30:13.578Z,31.03
2022-08-24T12:32:53.773Z,30.47
2022-08-24T12:35:30.352Z,31.25
2022-08-24T12:38:26.404Z,31.75
2022-08-24T12:41:17.766Z,31.17
2022-08-24T12:43:53.941Z,30.90
2022-08-24T12:46:23.925Z,30.55
2022-08-24T12:48:59.711Z,30.54
2022-08-24T12:51:54.057Z,30.42
2022-08-24T12:54:48.027Z,29.98
2022-08-24T12:57:25.304Z,30.32
2022-08-24T13:00:09.197Z,30.56
2022-08-24T13:02:47.898Z,31.81
2022-08-24T13:05:19.191Z,32.36
2022-08-24T13:07:49.444Z,32.55
2022-08-24T13:10:45.725Z,31.50
2022-08-24T13:13:23.268Z,31.13
2022-08-24T13:15:55.038Z,30.79
2022-08-24T13:18:22.420Z,30.55
2022-08-24T13:20:51.350Z,30.15
2022-08-24T13:23:24.365Z,29.75
2022-08-24T13:25:55.986Z,29.70
2022-08-24T13:28:23.323Z,30.04
2022-08-24T13:31:26.331Z,29.95
2022-08-24T13:34:00.527Z,30.05
2022-08-24T13:36:44.977Z,29.59
2022-08-24T13:39:32.646Z,29.43
2022-08-24T13:42:10.736Z,29.50
2022-08-24T13:44:50.354Z,29.34
2022-08-24T13:47:23.802Z,29.65
2022-08-24T13:50:03.376Z,29.65
2022-08-24T13:53:09.339Z,29.68
2022-08-24T13:55:46.379Z,29.73
2022-08-24T13:58:43.296Z,29.35
2022-08-24T14:01:26.640Z,29.25
2022-08-24T14:04:25.909Z,29.36
2022-08-24T14:07:17.217Z,29.49
2022-08-24T14:09:53.373Z,29.15
2022-08-24T14:12:32.397Z,29.32
2022-08-24T14:15:29.152Z,29.41
2022-08-24T14:18:11.320Z,29.70
2022-08-24T14:21:03.304Z,29.49
2022-08-24T14:23:57.123Z,29.29
2022-08-24T14:26:40.604Z,29.55
2022-08-24T14:29:20.394Z,29.35
2022-08-24T14:32:08.473Z,29.48
2022-08-24T14:34:48.665Z,29.70
2022-08-24T14:37:22.486Z,29.85
2022-08-24T14:40:02.609Z,29.65
2022-08-24T14:42:41.208Z,29.39
2022-08-24T14:45:23.794Z,29.40
2022-08-24T14:48:23.734Z,29.37
2022-08-24T14:51:29.804Z,29.19
2022-08-24T14:54:03.665Z,29.11
2022-08-24T14:56:50.755Z,29.17
2022-08-24T14:59:32.117Z,29.12
2022-08-24T15:02:29.824Z,29.25
2022-08-24T15:05:23.853Z,29.12
2022-08-24T15:07:57.830Z,29.23
2022-08-24T15:10:47.916Z,28.99
2022-08-24T15:13:56.509Z,29.06
2022-08-24T15:16:38.778Z,29.02
2022-08-24T15:19:44.969Z,28.96
2022-08-24T15:22:27.386Z,29.06
2022-08-24T15:25:05.321Z,29.13
2022-08-24T15:27:55.733Z,29.02
2022-08-24T15:30:32.625Z,28.69
2022-08-24T15:33:19.559Z,28.50
2022-08-24T15:35:50.543Z,28.48
2022-08-24T15:38:30.942Z,28.59
2022-08-24T15:41:28.679Z,28.36
2022-08-24T15:44:01.418Z,28.30
2022-08-24T15:46:45.806Z,28.14
2022-08-24T15:49:34.972Z,28.31
2022-08-24T15:52:08.315Z,28.51
2022-08-24T15:54:41.187Z,28.66
2022-08-24T15:57:31.911Z,28.71
2022-08-24T16:00:38.216Z,28.63
2022-08-24T16:03:30.683Z,28.62
2022-08-24T16:06:31.817Z,28.59
2022-08-24T16:09:01.249Z,28.46
2022-08-24T16:11:34.269Z,28.30
2022-08-24T16:14:02.448Z,28.25
2022-08-24T16:16:35.409Z,28.36
2022-08-24T16:19:08.321Z,28.45
2022-08-24T16:21:55.006Z,28.31
2022-08-24T16:24:27.466Z,28.16
2022-08-24T16:27:11.567Z,27.97
2022-08-24T16:29:39.092Z,27.94
2022-08-24T16:32:10.619Z,27.82
2022-08-24T16:34:51.148Z,27.73
2022-08-24T16:37:20.578Z,27.70
2022-08-24T16:39:48.959Z,27.67
2022-08-24T16:42:25.461Z,27.70
2022-08-24T16:44:53.090Z,27.61
2022-08-24T16:47:21.182Z,27.57
2022-08-24T16:49:49.510Z,27.56
2022-08-24T16:52:17.585Z,27.49
2022-08-24T16:54:45.621Z,27.51
2022-08-24T16:57:16.380Z,27.51
2022-08-24T16:59:45.821Z,27.46
2022-08-24T17:02:14.397Z,27.53
2022-08-24T17:04:42.712Z,27.39
2022-08-24T17:07:13.926Z,27.39
2022-08-24T17:09:44.217Z,27.37
2022-08-24T17:12:11.628Z,27.27
2022-08-24T17:14:39.545Z,27.24
2022-08-24T17:17:12.260Z,27.13
2022-08-24T17:19:39.887Z,27.10
2022-08-24T17:22:16.040Z,27.05
2022-08-24T17:24:44.309Z,26.92
2022-08-24T17:27:12.256Z,26.83
2022-08-24T17:29:40.150Z,26.77
2022-08-24T17:32:07.734Z,26.73
2022-08-24T17:34:35.108Z,26.62
2022-08-24T17:37:02.719Z,26.57
2022-08-24T17:39:30.580Z,26.45
2022-08-24T17:41:58.714Z,26.38
2022-08-24T17:44:28.648Z,26.34
2022-08-24T17:46:59.332Z,26.28
2022-08-24T17:49:28.326Z,26.28
2022-08-24T17:51:56.012Z,26.13
2022-08-24T17:54:23.908Z,26.03
2022-08-24T17:56:51.793Z,25.90
2022-08-24T17:59:30.725Z,25.89
2022-08-24T18:02:07.762Z,25.73
2022-08-24T18:04:36.499Z,25.69
2022-08-24T18:07:12.051Z,25.63
2022-08-24T18:09:50.177Z,25.57
2022-08-24T18:12:20.588Z,25.47
2022-08-24T18:14:48.421Z,25.44
2022-08-24T18:17:22.879Z,25.24
2022-08-24T18:19:52.023Z,25.12
2022-08-24T18:22:19.543Z,25.01
2022-08-24T18:24:46.990Z,24.99
2022-08-24T18:27:26.936Z,24.83
2022-08-24T18:30:00.289Z,24.78
2022-08-24T18:32:31.185Z,24.62
2022-08-24T18:34:59.767Z,24.44
2022-08-24T18:37:27.112Z,24.28
2022-08-24T18:39:54.497Z,24.32
2022-08-24T18:42:22.554Z,24.17
2022-08-24T18:44:49.935Z,24.07
2022-08-24T18:47:17.398Z,23.98
2022-08-24T18:49:44.810Z,23.86
2022-08-24T18:52:14.981Z,23.76
2022-08-24T18:54:44.721Z,23.66
2022-08-24T18:57:12.118Z,23.59
2022-08-24T18:59:40.960Z,23.57
2022-08-24T19:02:35.718Z,23.41
2022-08-24T19:05:13.070Z,23.19
2022-08-24T19:07:45.744Z,23.08
2022-08-24T19:10:16.157Z,23.02
2022-08-24T19:12:46.819Z,22.93
2022-08-24T19:15:35.091Z,22.89
2022-08-24T19:18:05.543Z,22.86
2022-08-24T19:20:34.444Z,22.78
2022-08-24T19:23:08.861Z,22.76
2022-08-24T19:25:38.506Z,22.68
2022-08-24T19:28:06.630Z,22.54
2022-08-24T19:30:34.135Z,22.49
2022-08-24T19:33:02.335Z,22.39
2022-08-24T19:35:31.719Z,22.36
2022-08-24T19:37:59.155Z,22.30
2022-08-24T19:40:26.609Z,22.31
2022-08-24T19:42:55.065Z,22.35
2022-08-24T19:45:45.315Z,22.34
2022-08-24T19:48:13.461Z,22.23
2022-08-24T19:50:41.365Z,22.11
2022-08-24T19:53:10.320Z,22.09
2022-08-24T19:55:37.942Z,22.04
2022-08-24T19:58:40.392Z,22.08
2022-08-24T20:01:13.809Z,22.14
2022-08-24T20:03:41.339Z,22.16
2022-08-24T20:06:08.897Z,22.15
2022-08-24T20:08:36.288Z,22.27
2022-08-24T20:11:04.291Z,22.31
2022-08-24T20:13:31.684Z,22.28
2022-08-24T20:15:59.230Z,22.36
2022-08-24T20:18:32.191Z,22.22
2022-08-24T20:21:00.236Z,22.23
2022-08-24T20:23:29.348Z,22.17
2022-08-24T20:25:58.021Z,22.07
2022-08-24T20:28:37.953Z,22.06
2022-08-24T20:31:06.288Z,21.99
2022-08-24T20:33:33.762Z,21.92
2022-08-24T20:36:01.185Z,21.86
2022-08-24T20:38:29.406Z,21.80
2022-08-24T20:41:00.302Z,21.73
2022-08-24T20:43:28.818Z,21.69
2022-08-24T20:45:56.626Z,21.64
2022-08-24T20:48:30.321Z,21.68
2022-08-24T20:50:57.947Z,21.61
2022-08-24T20:53:26.729Z,21.55
2022-08-24T20:55:56.515Z,21.42
2022-08-24T20:58:24.348Z,21.34
2022-08-24T21:00:52.053Z,21.28
2022-08-24T21:03:19.903Z,21.22
2022-08-24T21:05:51.214Z,21.20
2022-08-24T21:08:18.678Z,21.13
2022-08-24T21:10:46.178Z,21.06
2022-08-24T21:13:13.988Z,21.12
2022-08-24T21:15:41.662Z,21.15
2022-08-24T21:18:10.882Z,21.11
2022-08-24T21:20:44.610Z,21.00
2022-08-24T21:23:28.209Z,20.72
2022-08-24T21:25:55.894Z,20.64
2022-08-24T21:28:23.878Z,20.70
2022-08-24T21:30:51.377Z,20.68
2022-08-24T21:33:37.335Z,20.61
2022-08-24T21:36:05.425Z,20.54
2022-08-24T21:38:35.566Z,20.42
2022-08-24T21:41:03.649Z,20.41
2022-08-24T21:43:32.373Z,20.30
2022-08-24T21:46:00.751Z,20.23
2022-08-24T21:48:27.801Z,20.10
2022-08-24T21:50:54.889Z,19.96
2022-08-24T21:53:21.936Z,19.95
2022-08-24T21:55:55.993Z,19.93
2022-08-24T21:58:24.068Z,19.95
2022-08-24T22:00:51.772Z,19.92
2022-08-24T22:03:19.600Z,19.99
2022-08-24T22:05:46.613Z,20.05
2022-08-24T22:08:13.612Z,20.09
2022-08-24T22:10:40.631Z,20.13
2022-08-24T22:13:08.092Z,20.16
2022-08-24T22:15:36.113Z,20.17
2022-08-24T22:18:03.285Z,20.21
2022-08-24T22:20:30.363Z,20.19
2022-08-24T22:22:58.469Z,20.12
2022-08-24T22:25:25.933Z,20.05
2022-08-24T22:27:53.025Z,19.87
2022-08-24T22:30:20.178Z,19.71
2022-08-24T22:32:47.192Z,19.62
2022-08-24T22:35:14.418Z,19.57
2022-08-24T22:37:41.905Z,19.54
2022-08-24T22:40:12.594Z,19.55
2022-08-24T22:42:40.734Z,19.51
2022-08-24T22:45:09.800Z,19.48
2022-08-24T22:47:37.302Z,19.43
2022-08-24T22:50:06.262Z,19.41
2022-08-24T22:52:33.629Z,19.35
2022-08-24T22:55:00.662Z,19.24
2022-08-24T22:57:28.145Z,19.14
2022-08-24T22:59:57.739Z,19.21
2022-08-24T23:02:25.200Z,19.19
2022-08-24T23:04:53.704Z,19.18
2022-08-24T23:07:21.398Z,19.15
2022-08-24T23:09:48.557Z,19.15
2022-08-24T23:12:22.280Z,19.16
2022-08-24T23:14:52.025Z,19.22
2022-08-24T23:17:20.589Z,19.29
2022-08-24T23:20:00.706Z,19.26
2022-08-24T23:22:38.692Z,19.26
2022-08-24T23:25:12.018Z,19.34
2022-08-24T23:27:39.702Z,19.66
2022-08-24T23:30:13.015Z,19.64
2022-08-24T23:32:40.936Z,19.86
2022-08-24T23:35:08.918Z,19.81
2022-08-24T23:37:35.971Z,19.71
2022-08-24T23:40:04.549Z,19.61
2022-08-24T23:42:31.681Z,19.48
2022-08-24T23:44:58.678Z,19.46
2022-08-24T23:47:26.983Z,19.29
2022-08-24T23:49:55.498Z,19.36
2022-08-24T23:52:28.545Z,19.25
2022-08-24T23:55:20.586Z,19.18
2022-08-24T23:57:47.733Z,19.01
